KJCA

Jackson County Airport

Jefferson, Georgia, USA
METAR KJCA 201015Z AUTO 28016G24KT 10SM SCT017 BKN041 03/00 A2967 RMK AO2 PWINO T00320001
Observed Flight Rules
Jan-20 @ 10:15 UTC (44 minutes ago) Visual Flight Rules
Wind Visibility Clouds
280° at 16 knots
 Gusting to 24 knots
10 miles
  • Scattered at 1,700' AGL
  • Broken at 4,100' AGL
Temperatures Readings
Current 3°C / 37°F
Dewpoint 0°C / 32°F
Humidity 81%
Altimeter 29.67" Hg
Pressure 1004.72 hPa
Elevation 290
METAR KJCA 201015Z AUTO 28016G24KT 10SM SCT017 BKN041 03/00 A2967 RMK AO2 PWINO T00320001
Observed Flight Rules
Jan-20 @ 10:15 UTC
(44 minutes ago)
VFR
Wind Visibility
280° at 16 knots
 Gusting to 24 knots
10 miles
Clouds
  • Scattered at 1,700' AGL
  • Broken at 4,100' AGL
Temperature Dewpoint
3°C / 37°F 0°C / 32°F
Humidity Altimeter Pressure
81% 29.67" Hg 1004.72 hPa